createdAt,value
2023-11-18T00:01:46.950Z,48.35
2023-11-18T00:04:32.565Z,50.45
2023-11-18T00:07:18.416Z,49.92
2023-11-18T00:10:05.395Z,53.97
2023-11-18T00:12:51.072Z,53.42
2023-11-18T00:15:37.125Z,55.08
2023-11-18T00:18:24.557Z,55.45
2023-11-18T00:21:10.278Z,56.42
2023-11-18T00:23:57.083Z,51.17
2023-11-18T00:26:42.518Z,49.58
2023-11-18T00:29:28.444Z,58.13
2023-11-18T00:32:14.417Z,52.25
2023-11-18T00:35:02.049Z,54.17
2023-11-18T00:37:49.109Z,52.67
2023-11-18T00:40:36.350Z,49.42
2023-11-18T00:43:23.803Z,55.28
2023-11-18T00:46:09.379Z,53.00
2023-11-18T00:48:59.116Z,56.45
2023-11-18T00:51:46.410Z,59.22
2023-11-18T00:54:31.961Z,55.85
2023-11-18T00:57:18.177Z,58.30
2023-11-18T01:00:04.303Z,55.67
2023-11-18T01:02:51.033Z,52.47
2023-11-18T01:05:36.785Z,54.30
2023-11-18T01:08:24.214Z,53.72
2023-11-18T01:11:10.288Z,55.55
2023-11-18T01:13:57.089Z,58.55
2023-11-18T01:16:42.873Z,57.58
2023-11-18T01:19:29.543Z,59.60
2023-11-18T01:22:15.651Z,57.20
2023-11-18T01:25:02.463Z,52.30
2023-11-18T01:27:48.305Z,62.58
2023-11-18T01:30:33.877Z,60.17
2023-11-18T01:33:19.643Z,60.60
2023-11-18T01:36:06.797Z,61.47
2023-11-18T01:38:52.648Z,57.20
2023-11-18T01:41:40.099Z,67.20
2023-11-18T01:44:25.676Z,59.95
2023-11-18T01:47:15.099Z,65.90
2023-11-18T01:50:02.473Z,66.90
2023-11-18T01:52:49.593Z,61.85
2023-11-18T01:55:35.768Z,67.95
2023-11-18T01:58:24.199Z,67.63
2023-11-18T02:01:11.252Z,69.82
2023-11-18T02:03:57.234Z,62.95
2023-11-18T02:06:43.770Z,71.68
2023-11-18T02:09:30.310Z,68.20
2023-11-18T02:12:26.686Z,65.65
2023-11-18T02:15:15.512Z,63.60
2023-11-18T02:18:04.925Z,60.90
2023-11-18T02:20:51.571Z,57.03
2023-11-18T02:23:38.503Z,67.80
2023-11-18T02:26:26.895Z,64.45
2023-11-18T02:29:12.900Z,68.78
2023-11-18T02:32:03.427Z,68.13
2023-11-18T02:34:56.623Z,67.72
2023-11-18T02:37:48.416Z,59.42
2023-11-18T02:40:36.961Z,62.22
2023-11-18T02:43:25.298Z,65.55
2023-11-18T02:46:16.530Z,62.30
2023-11-18T02:49:03.569Z,60.33
2023-11-18T02:51:49.256Z,64.95
2023-11-18T02:54:34.962Z,66.90
2023-11-18T02:57:20.570Z,64.28
2023-11-18T03:00:24.548Z,63.97
2023-11-18T03:03:10.594Z,70.20
2023-11-18T03:05:56.702Z,65.47
2023-11-18T03:08:42.682Z,66.05
2023-11-18T03:11:31.011Z,62.80
2023-11-18T03:14:16.897Z,70.22
2023-11-18T03:17:07.421Z,61.38
2023-11-18T03:19:53.343Z,63.90
2023-11-18T03:22:39.318Z,63.22
2023-11-18T03:25:25.071Z,63.40
2023-11-18T03:28:10.448Z,67.55
2023-11-18T03:30:56.387Z,66.28
2023-11-18T03:33:43.661Z,69.78
2023-11-18T03:36:29.188Z,68.50
2023-11-18T03:39:15.405Z,60.42
2023-11-18T03:42:01.059Z,60.85
2023-11-18T03:44:48.742Z,67.75
2023-11-18T03:47:35.226Z,73.45
2023-11-18T03:50:22.319Z,67.13
2023-11-18T03:53:07.930Z,73.50
2023-11-18T03:55:53.936Z,72.43
2023-11-18T03:58:41.896Z,71.70
2023-11-18T04:01:28.625Z,72.68
2023-11-18T04:04:14.328Z,75.70
2023-11-18T04:07:04.314Z,82.72
2023-11-18T04:09:50.926Z,78.18
2023-11-18T04:12:38.748Z,81.03
2023-11-18T04:15:25.355Z,82.85
2023-11-18T04:18:11.308Z,86.70
2023-11-18T04:20:59.101Z,80.72
2023-11-18T04:23:47.828Z,79.93
2023-11-18T04:26:33.784Z,73.47
2023-11-18T04:29:19.733Z,71.18
2023-11-18T04:32:06.076Z,66.43
2023-11-18T04:34:52.580Z,72.03
2023-11-18T04:37:38.474Z,73.60
2023-11-18T04:40:25.808Z,77.22
2023-11-18T04:43:11.972Z,75.63
2023-11-18T04:45:57.392Z,76.30
2023-11-18T04:48:44.090Z,77.78
2023-11-18T04:51:31.396Z,68.47
2023-11-18T04:54:17.052Z,76.18
2023-11-18T04:57:04.840Z,75.57
2023-11-18T04:59:50.748Z,67.75
2023-11-18T05:02:36.413Z,68.22
2023-11-18T05:05:23.378Z,69.15
2023-11-18T05:08:19.764Z,67.18
2023-11-18T05:11:06.135Z,68.97
2023-11-18T05:13:54.571Z,65.28
2023-11-18T05:16:40.494Z,67.65
2023-11-18T05:19:26.880Z,63.13
2023-11-18T05:22:12.415Z,64.55
2023-11-18T05:24:58.709Z,59.47
2023-11-18T05:27:45.227Z,62.03
2023-11-18T05:30:32.405Z,62.15
2023-11-18T05:33:19.025Z,66.80
2023-11-18T05:36:08.459Z,62.95
2023-11-18T05:38:55.022Z,64.47
2023-11-18T05:41:42.214Z,57.85
2023-11-18T05:44:31.888Z,50.17
2023-11-18T05:47:18.937Z,54.70
2023-11-18T05:50:06.751Z,57.63
2023-11-18T05:52:53.637Z,57.33
2023-11-18T05:55:39.672Z,50.67
2023-11-18T05:58:25.663Z,57.85
2023-11-18T06:01:12.407Z,53.33
2023-11-18T06:04:00.361Z,53.75
2023-11-18T06:06:45.946Z,56.00
2023-11-18T06:09:31.387Z,54.72
2023-11-18T06:12:18.849Z,54.75
2023-11-18T06:15:05.345Z,50.40
2023-11-18T06:17:51.027Z,52.88
2023-11-18T06:20:39.603Z,55.08
2023-11-18T06:23:27.116Z,55.88
2023-11-18T06:26:13.117Z,57.58
2023-11-18T06:29:00.646Z,55.20
2023-11-18T06:31:46.554Z,48.70
2023-11-18T06:34:32.157Z,53.88
2023-11-18T06:37:19.073Z,55.72
2023-11-18T06:40:17.226Z,49.45
2023-11-18T06:43:04.113Z,56.53
2023-11-18T06:45:49.827Z,49.15
2023-11-18T06:48:36.215Z,41.97
2023-11-18T06:51:25.416Z,47.78
2023-11-18T06:54:14.774Z,44.75
2023-11-18T06:57:00.669Z,44.10
2023-11-18T06:59:46.434Z,40.60
2023-11-18T07:02:31.874Z,40.28
2023-11-18T07:05:18.521Z,45.28
2023-11-18T07:08:05.061Z,39.78
2023-11-18T07:10:52.451Z,46.30
2023-11-18T07:13:38.521Z,44.65
2023-11-18T07:16:25.175Z,39.85
2023-11-18T07:19:16.159Z,40.30
2023-11-18T07:22:03.636Z,34.00
2023-11-18T07:24:49.374Z,34.17
2023-11-18T07:27:37.158Z,34.05
2023-11-18T07:30:24.512Z,33.70
2023-11-18T07:33:10.390Z,36.00
2023-11-18T07:35:56.610Z,28.33
2023-11-18T07:38:42.564Z,31.67
2023-11-18T07:41:30.785Z,33.72
2023-11-18T07:44:19.844Z,33.43
2023-11-18T07:47:06.533Z,29.77
2023-11-18T07:49:52.497Z,29.10
2023-11-18T07:52:38.474Z,30.90
2023-11-18T07:55:24.653Z,32.47
2023-11-18T07:58:13.712Z,30.63
2023-11-18T08:01:01.380Z,26.90
2023-11-18T08:03:48.827Z,30.58
2023-11-18T08:06:34.779Z,25.30
2023-11-18T08:09:24.580Z,30.15
2023-11-18T08:12:10.403Z,33.75
2023-11-18T08:14:56.336Z,30.08
2023-11-18T08:17:43.328Z,29.60
2023-11-18T08:20:29.406Z,26.70
2023-11-18T08:23:15.022Z,23.92
2023-11-18T08:26:00.869Z,27.17
2023-11-18T08:28:46.875Z,28.52
2023-11-18T08:31:33.979Z,27.83
2023-11-18T08:34:21.006Z,28.60
2023-11-18T08:37:06.556Z,24.27
2023-11-18T08:39:52.526Z,32.67
2023-11-18T08:42:38.826Z,22.30
2023-11-18T08:45:29.375Z,30.40
2023-11-18T08:48:16.658Z,26.85
2023-11-18T08:51:04.199Z,27.02
2023-11-18T08:53:52.003Z,23.17
2023-11-18T08:56:43.227Z,23.35
2023-11-18T08:59:29.008Z,23.48
2023-11-18T09:02:16.304Z,21.85
2023-11-18T09:05:07.916Z,22.15
2023-11-18T09:07:58.884Z,19.98
2023-11-18T09:10:44.843Z,20.77
2023-11-18T09:13:31.209Z,21.65
2023-11-18T09:16:17.238Z,21.30
2023-11-18T09:19:04.055Z,19.48
2023-11-18T09:21:50.253Z,20.98
2023-11-18T09:24:37.759Z,18.88
2023-11-18T09:27:24.061Z,19.85
2023-11-18T09:30:14.961Z,17.02
2023-11-18T09:33:03.930Z,20.17
2023-11-18T09:35:50.069Z,21.90
2023-11-18T09:38:36.977Z,20.65
2023-11-18T09:41:28.969Z,16.52
2023-11-18T09:44:16.411Z,16.83
2023-11-18T09:47:10.587Z,20.80
2023-11-18T09:50:00.794Z,16.70
2023-11-18T09:52:53.131Z,17.65
2023-11-18T09:55:46.038Z,16.80
2023-11-18T09:58:42.340Z,20.67
2023-11-18T10:01:29.390Z,16.30
2023-11-18T10:04:19.548Z,19.65
2023-11-18T10:07:05.838Z,19.52
2023-11-18T10:09:56.759Z,16.33
2023-11-18T10:12:44.557Z,15.57
2023-11-18T10:15:32.783Z,15.68
2023-11-18T10:18:24.130Z,15.15
2023-11-18T10:21:12.775Z,16.48
2023-11-18T10:24:02.359Z,17.48
2023-11-18T10:26:57.482Z,14.73
2023-11-18T10:29:43.491Z,16.20
2023-11-18T10:32:31.190Z,14.73
2023-11-18T10:35:19.667Z,19.75
2023-11-18T10:38:08.654Z,12.07
2023-11-18T10:40:59.112Z,19.88
2023-11-18T10:43:45.837Z,17.70
2023-11-18T10:46:33.335Z,15.15
2023-11-18T10:49:21.772Z,15.25
2023-11-18T10:52:09.878Z,17.95
2023-11-18T10:54:57.085Z,18.33
2023-11-18T10:57:44.192Z,15.68
2023-11-18T11:00:34.781Z,17.55
2023-11-18T11:03:20.794Z,17.60
2023-11-18T11:06:20.483Z,19.90
2023-11-18T11:09:15.472Z,20.02
2023-11-18T11:12:06.223Z,22.38
2023-11-18T11:14:59.185Z,20.25
2023-11-18T11:17:56.261Z,16.02
2023-11-18T11:20:50.156Z,16.60
2023-11-18T11:23:50.860Z,17.77
2023-11-18T11:26:46.262Z,15.60
2023-11-18T11:29:40.959Z,16.27
2023-11-18T11:32:39.438Z,15.55
2023-11-18T11:35:32.164Z,13.60
2023-11-18T11:38:19.526Z,12.15
2023-11-18T11:41:09.664Z,15.98
2023-11-18T11:43:58.967Z,15.75
2023-11-18T11:46:45.255Z,21.38
2023-11-18T11:49:38.135Z,18.20
2023-11-18T11:52:30.786Z,12.68
2023-11-18T11:55:24.945Z,16.00
2023-11-18T11:58:34.345Z,11.80
2023-11-18T12:01:31.117Z,14.50
2023-11-18T12:04:23.026Z,11.43
2023-11-18T12:07:18.466Z,11.60
2023-11-18T12:10:14.805Z,10.23
2023-11-18T12:13:17.444Z,13.82
2023-11-18T12:16:05.913Z,11.85
2023-11-18T12:19:43.276Z,12.48
2023-11-18T12:22:49.390Z,11.93
2023-11-18T12:25:37.641Z,11.73
2023-11-18T12:28:35.466Z,15.63
2023-11-18T12:31:42.055Z,15.93
2023-11-18T12:34:53.024Z,9.70
2023-11-18T12:38:08.268Z,11.95
2023-11-18T12:41:00.951Z,13.23
2023-11-18T12:43:55.080Z,16.88
2023-11-18T12:46:51.723Z,14.77
2023-11-18T12:49:42.268Z,17.60
2023-11-18T12:52:29.176Z,12.77
2023-11-18T12:55:20.258Z,9.45
2023-11-18T12:58:06.788Z,10.90
2023-11-18T13:00:52.479Z,16.02
2023-11-18T13:03:39.614Z,11.77
2023-11-18T13:06:29.677Z,11.75
2023-11-18T13:09:26.009Z,8.13
2023-11-18T13:12:15.849Z,13.10
2023-11-18T13:15:01.937Z,16.42
2023-11-18T13:17:59.308Z,10.65
2023-11-18T13:20:58.508Z,9.52
2023-11-18T13:23:47.323Z,7.60
2023-11-18T13:26:34.471Z,14.07
2023-11-18T13:29:22.708Z,13.20
2023-11-18T13:32:11.206Z,9.45
2023-11-18T13:34:56.969Z,10.07
2023-11-18T13:37:46.709Z,10.10
2023-11-18T13:40:43.993Z,11.63
2023-11-18T13:43:29.534Z,9.95
2023-11-18T13:46:15.804Z,6.50
2023-11-18T13:49:01.474Z,9.45
2023-11-18T13:51:47.798Z,7.85
2023-11-18T13:54:35.835Z,6.90
2023-11-18T13:57:23.145Z,9.35
2023-11-18T14:00:16.766Z,6.82
2023-11-18T14:03:02.813Z,6.65
2023-11-18T14:05:48.888Z,7.18
2023-11-18T14:08:37.360Z,7.55
2023-11-18T14:11:25.431Z,6.65
2023-11-18T14:14:11.670Z,4.15
2023-11-18T14:16:59.155Z,3.67
2023-11-18T14:19:45.085Z,6.13
2023-11-18T14:22:30.925Z,5.38
2023-11-18T14:25:18.440Z,5.28
2023-11-18T14:28:05.877Z,4.35
2023-11-18T14:30:51.803Z,4.63
2023-11-18T14:33:38.187Z,4.80
2023-11-18T14:36:25.156Z,3.83
2023-11-18T14:39:11.390Z,3.38
2023-11-18T14:41:57.489Z,3.08
2023-11-18T14:44:44.392Z,6.38
2023-11-18T14:47:32.976Z,4.05
2023-11-18T14:50:21.069Z,3.47
2023-11-18T14:53:07.410Z,3.67
2023-11-18T14:55:53.248Z,2.60
2023-11-18T14:58:39.703Z,4.88
2023-11-18T15:01:27.268Z,2.78
2023-11-18T15:04:13.451Z,2.80
2023-11-18T15:06:59.520Z,3.13
2023-11-18T15:09:45.116Z,3.92
2023-11-18T15:12:31.577Z,2.90
2023-11-18T15:15:19.701Z,2.47
2023-11-18T15:18:15.132Z,2.92
2023-11-18T15:21:01.231Z,4.00
2023-11-18T15:23:47.693Z,4.28
2023-11-18T15:26:33.887Z,3.03
2023-11-18T15:29:20.062Z,2.63
2023-11-18T15:32:06.543Z,2.75
2023-11-18T15:34:54.160Z,3.63
2023-11-18T15:37:42.593Z,2.83
2023-11-18T15:40:29.457Z,2.55
2023-11-18T15:43:15.111Z,3.00
2023-11-18T15:46:00.766Z,2.47
2023-11-18T15:48:46.323Z,3.72
2023-11-18T15:51:33.318Z,2.25
2023-11-18T15:54:20.109Z,2.75
2023-11-18T15:57:06.057Z,2.60
2023-11-18T15:59:51.848Z,2.90
2023-11-18T16:02:37.881Z,2.88
2023-11-18T16:05:24.909Z,3.50
2023-11-18T16:08:12.430Z,2.83
2023-11-18T16:10:58.191Z,4.63
2023-11-18T16:13:43.868Z,3.38
2023-11-18T16:16:29.676Z,3.13
2023-11-18T16:19:17.290Z,2.97
2023-11-18T16:22:02.669Z,2.67
2023-11-18T16:24:49.856Z,6.32
2023-11-18T16:27:35.669Z,3.17
2023-11-18T16:30:26.009Z,2.70
2023-11-18T16:33:12.674Z,3.00
2023-11-18T16:35:59.965Z,2.30
2023-11-18T16:38:47.578Z,2.60
2023-11-18T16:41:43.320Z,1.88
2023-11-18T16:44:31.770Z,1.42
2023-11-18T16:47:17.687Z,0.95
2023-11-18T16:50:04.668Z,1.05
2023-11-18T16:52:51.451Z,1.58
2023-11-18T16:55:37.192Z,1.65
2023-11-18T16:58:24.545Z,1.73
2023-11-18T17:01:10.421Z,3.50
2023-11-18T17:03:56.242Z,2.00
2023-11-18T17:06:42.864Z,1.73
2023-11-18T17:09:28.813Z,1.60
2023-11-18T17:12:14.602Z,1.65
2023-11-18T17:15:01.617Z,1.67
2023-11-18T17:17:48.938Z,1.65
2023-11-18T17:20:35.146Z,1.77
2023-11-18T17:23:20.905Z,2.00
2023-11-18T17:26:08.730Z,2.05
2023-11-18T17:28:54.890Z,2.60
2023-11-18T17:31:42.627Z,2.40
2023-11-18T17:34:29.383Z,2.70
2023-11-18T17:37:15.346Z,2.80
2023-11-18T17:40:00.889Z,2.45
2023-11-18T17:42:46.482Z,4.28
2023-11-18T17:45:32.314Z,2.75
2023-11-18T17:48:19.492Z,2.88
2023-11-18T17:51:05.695Z,3.72
2023-11-18T17:53:51.529Z,3.00
2023-11-18T17:56:36.995Z,2.40
2023-11-18T17:59:23.079Z,4.57
2023-11-18T18:02:09.605Z,3.65
2023-11-18T18:04:56.811Z,3.28
2023-11-18T18:07:43.537Z,3.30
2023-11-18T18:10:29.896Z,3.17
2023-11-18T18:13:16.552Z,3.08
2023-11-18T18:16:02.493Z,4.78
2023-11-18T18:18:48.366Z,3.83
2023-11-18T18:21:35.639Z,5.65
2023-11-18T18:24:21.616Z,5.35
2023-11-18T18:27:07.436Z,4.45
2023-11-18T18:29:53.568Z,4.55
2023-11-18T18:32:39.865Z,6.63
2023-11-18T18:35:26.938Z,7.50
2023-11-18T18:38:14.817Z,6.85
2023-11-18T18:41:01.746Z,6.00
2023-11-18T18:43:47.811Z,6.30
2023-11-18T18:46:33.879Z,5.30
2023-11-18T18:49:20.151Z,6.30
2023-11-18T18:52:06.276Z,6.50
2023-11-18T18:54:54.558Z,4.72
2023-11-18T18:57:40.486Z,6.80
2023-11-18T19:00:26.037Z,7.43
2023-11-18T19:03:12.966Z,6.65
2023-11-18T19:05:58.911Z,10.15
2023-11-18T19:08:44.735Z,5.72
2023-11-18T19:11:32.503Z,8.32
2023-11-18T19:14:18.815Z,7.30
2023-11-18T19:17:06.230Z,9.00
2023-11-18T19:19:52.171Z,7.13
2023-11-18T19:22:38.296Z,7.72
2023-11-18T19:25:24.486Z,7.53
2023-11-18T19:28:12.410Z,7.28
2023-11-18T19:30:58.058Z,7.00
2023-11-18T19:33:44.606Z,9.93
2023-11-18T19:36:30.841Z,8.80
2023-11-18T19:39:16.458Z,7.55
2023-11-18T19:42:19.582Z,10.00
2023-11-18T19:45:09.420Z,8.10
2023-11-18T19:47:55.574Z,7.95
2023-11-18T19:50:41.401Z,9.73
2023-11-18T19:53:27.744Z,7.40
2023-11-18T19:56:15.554Z,7.95
2023-11-18T19:59:01.465Z,8.75
2023-11-18T20:01:55.750Z,10.70
2023-11-18T20:04:43.055Z,8.07
2023-11-18T20:07:31.393Z,9.27
2023-11-18T20:10:17.424Z,10.48
2023-11-18T20:13:03.527Z,10.80
2023-11-18T20:15:50.430Z,10.73
2023-11-18T20:18:38.481Z,10.20
2023-11-18T20:21:24.881Z,12.55
2023-11-18T20:24:12.871Z,13.07
2023-11-18T20:26:59.092Z,11.68
2023-11-18T20:29:45.386Z,11.88
2023-11-18T20:32:32.182Z,10.48
2023-11-18T20:35:20.334Z,11.90
2023-11-18T20:38:06.811Z,9.38
2023-11-18T20:40:53.000Z,9.27
2023-11-18T20:43:38.528Z,17.10
2023-11-18T20:46:26.193Z,14.75
2023-11-18T20:49:12.743Z,12.68
2023-11-18T20:51:59.589Z,11.77
2023-11-18T20:54:45.362Z,13.15
2023-11-18T20:57:31.280Z,15.55
2023-11-18T21:00:21.168Z,13.90
2023-11-18T21:03:07.501Z,15.75
2023-11-18T21:05:54.922Z,15.95
2023-11-18T21:08:42.978Z,13.73
2023-11-18T21:11:29.072Z,14.63
2023-11-18T21:14:15.226Z,13.25
2023-11-18T21:17:08.508Z,15.93
2023-11-18T21:19:54.708Z,16.58
2023-11-18T21:22:41.878Z,14.00
2023-11-18T21:25:28.991Z,16.00
2023-11-18T21:28:14.776Z,12.32
2023-11-18T21:31:00.653Z,15.02
2023-11-18T21:33:46.499Z,16.33
2023-11-18T21:36:32.182Z,14.95
2023-11-18T21:39:19.269Z,14.40
2023-11-18T21:42:08.677Z,12.68
2023-11-18T21:44:55.522Z,18.70
2023-11-18T21:47:46.191Z,14.10
2023-11-18T21:50:34.485Z,17.55
2023-11-18T21:53:24.334Z,17.90
2023-11-18T21:56:11.047Z,17.13
2023-11-18T21:58:58.478Z,16.83
2023-11-18T22:01:47.199Z,16.23
2023-11-18T22:04:33.019Z,17.42
2023-11-18T22:07:19.215Z,16.77
2023-11-18T22:10:05.503Z,16.92
2023-11-18T22:12:53.821Z,19.75
2023-11-18T22:15:41.016Z,23.33
2023-11-18T22:18:27.654Z,18.40
2023-11-18T22:21:13.187Z,21.40
2023-11-18T22:23:58.777Z,21.30
2023-11-18T22:26:44.503Z,21.00
2023-11-18T22:29:30.560Z,19.67
2023-11-18T22:32:18.268Z,22.98
2023-11-18T22:35:05.026Z,24.77
2023-11-18T22:37:51.262Z,26.35
2023-11-18T22:40:39.757Z,20.58
2023-11-18T22:43:25.534Z,20.85
2023-11-18T22:46:12.038Z,24.10
2023-11-18T22:48:59.090Z,17.25
2023-11-18T22:51:44.613Z,18.75
2023-11-18T22:54:30.330Z,19.80
2023-11-18T22:57:15.782Z,14.82
2023-11-18T23:00:01.760Z,19.50
2023-11-18T23:02:47.756Z,16.67
2023-11-18T23:05:40.424Z,16.90
2023-11-18T23:08:26.233Z,21.25
2023-11-18T23:11:13.221Z,14.48
2023-11-18T23:14:01.384Z,17.05
2023-11-18T23:16:47.207Z,9.13
2023-11-18T23:19:38.414Z,13.20
2023-11-18T23:22:33.519Z,14.57
2023-11-18T23:25:20.320Z,10.05
2023-11-18T23:28:08.952Z,12.07
2023-11-18T23:30:58.345Z,17.95
2023-11-18T23:33:43.910Z,10.95
2023-11-18T23:36:29.651Z,12.75
2023-11-18T23:39:17.592Z,13.88
2023-11-18T23:42:03.760Z,17.63
2023-11-18T23:44:49.496Z,11.02
2023-11-18T23:47:35.423Z,12.60
2023-11-18T23:50:24.923Z,10.90
2023-11-18T23:53:10.483Z,11.48
2023-11-18T23:55:57.396Z,11.82
2023-11-18T23:58:42.924Z,14.82
